Ndola, Zambia

5:21 PM CAT on December 11, 2016 (GMT +0200)
Simon Mwansa Kapwepwe Int | | Change Station

Elev 0 ft 12.99 °S, 28.67 °E | Updated 21 minutes ago

Thunderstorm
Thunderstorm
75 °F
Feels Like 75 °F
N
0
Wind Variable Wind from North

Today
High -- | Low -- °F
--% Chance of Precip.
Yesterday
High -- | Low -- °F
Precip. -- in
Pressure 30.01 in
Visibility 6.2 miles
Clouds Few 5000 ft
Scattered Clouds 6000 ft
Dew Point 64 °F
Humidity 69%
Rainfall 0.00 in
Snow Depth Not available.
5:32 AM 6:25 PM
Waxing Gibbous, 92% visible
METAR FLSK 111500Z 00000KT 9999 -TS FEW050CB SCT060 24/18 Q1016
Pressure 30.01 in
Visibility 6.2 miles
Clouds Few 5000 ft
Scattered Clouds 6000 ft
Dew Point 64 °F
Humidity 69%
Rainfall 0.00 in
Snow Depth Not available.
5:32 AM 6:25 PM
Waxing Gibbous, 92% visible
METAR FLSK 111500Z 00000KT 9999 -TS FEW050CB SCT060 24/18 Q1016

10-Day Weather Forecast

No radar image for this location.
×

Almanac

Astronomy

Dec. 11, 2016 Rise Set
Actual Time
Civil Twilight
Nautical Twilight
Astronomical Twilight
Moon
Length of Visible Light
Length of Day
Tomorrow will be .
, % of the Moon is Illuminated

Today's Extremes

Country Highs Country Lows

Community

WunderPhotos

Upload Photos

1,956,725 photos uploaded!

WunderBlog® & News

Nearby

Air Quality

  Air Quality AQ Index Pollutant
Not available.

Snow Depth

Station Depth Elevation

Earthquake Activity

City Distance Mag. Time & Date
Minimum magnitude displayed is 2.5.

Coastal Water Temperatures

Place Temperature

Stations

Nearby Weather Stations

Station Location Temp. Windchill Dew Point Humidity Wind Precip. Elev Updated Type